createdAt,value
2019-04-23T00:02:46.136Z,11.36
2019-04-23T00:04:54.172Z,11.42
2019-04-23T00:07:43.140Z,11.46
2019-04-23T00:10:12.722Z,11.50
2019-04-23T00:12:49.633Z,11.57
2019-04-23T00:15:08.753Z,11.64
2019-04-23T00:20:10.091Z,11.61
2019-04-23T00:23:02.441Z,11.48
2019-04-23T00:28:14.177Z,11.37
2019-04-23T00:30:44.078Z,11.31
2019-04-23T00:33:12.593Z,11.22
2019-04-23T00:35:43.424Z,11.27
2019-04-23T00:38:18.216Z,11.40
2019-04-23T00:40:47.287Z,11.38
2019-04-23T00:43:15.449Z,11.34
2019-04-23T00:48:31.146Z,11.23
2019-04-23T00:50:49.179Z,11.25
2019-04-23T00:53:23.416Z,11.39
2019-04-23T00:56:01.985Z,11.49
2019-04-23T00:58:29.095Z,11.32
2019-04-23T01:00:52.835Z,11.36
2019-04-23T01:03:21.422Z,11.28
2019-04-23T01:05:52.689Z,11.22
2019-04-23T01:11:02.734Z,10.74
2019-04-23T01:13:39.593Z,10.50
2019-04-23T01:19:04.170Z,10.45
2019-04-23T01:21:09.843Z,10.54
2019-04-23T01:24:02.739Z,10.63
2019-04-23T01:27:01.743Z,10.73
2019-04-23T01:29:30.475Z,10.79
2019-04-23T01:31:57.442Z,10.86
2019-04-23T01:34:31.425Z,10.81
2019-04-23T01:36:57.481Z,10.82
2019-04-23T01:39:28.031Z,10.86
2019-04-23T01:42:20.173Z,11.05
2019-04-23T01:44:36.728Z,11.04
2019-04-23T01:47:07.781Z,11.16
2019-04-23T01:49:48.407Z,11.25
2019-04-23T01:52:08.376Z,11.36
2019-04-23T01:54:39.435Z,11.40
2019-04-23T01:57:12.961Z,11.42
2019-04-23T01:59:49.462Z,11.47
2019-04-23T02:02:12.137Z,11.53
2019-04-23T02:04:46.045Z,11.53
2019-04-23T02:07:22.086Z,11.46
2019-04-23T02:09:50.976Z,11.45
2019-04-23T02:12:18.168Z,11.50
2019-04-23T02:14:51.672Z,11.51
2019-04-23T02:17:21.930Z,11.54
2019-04-23T02:19:51.742Z,11.48
2019-04-23T02:22:52.668Z,11.44
2019-04-23T02:25:34.901Z,11.43
2019-04-23T02:27:59.915Z,11.45
2019-04-23T02:33:10.476Z,11.41
2019-04-23T02:38:15.790Z,11.36
2019-04-23T02:40:49.514Z,11.21
2019-04-23T02:50:39.772Z,10.60
2019-04-23T02:53:20.782Z,10.61
2019-04-23T02:55:50.448Z,10.54
2019-04-23T02:58:18.559Z,10.60
2019-04-23T03:03:25.182Z,10.53
2019-04-23T03:05:54.912Z,10.43
2019-04-23T03:11:01.342Z,10.04
2019-04-23T03:19:02.621Z,9.39
2019-04-23T03:21:54.356Z,9.35
2019-04-23T03:24:39.021Z,9.21
2019-04-23T03:29:40.506Z,9.02
2019-04-23T03:37:20.124Z,9.02
2019-04-23T03:42:22.278Z,8.94
2019-04-23T03:44:47.793Z,8.96
2019-04-23T03:47:18.465Z,8.85
2019-04-23T03:49:48.134Z,8.71
2019-04-23T03:52:27.835Z,8.65
2019-04-23T03:54:46.211Z,8.65
2019-04-23T04:04:45.293Z,8.70
2019-04-23T04:12:29.284Z,8.93
2019-04-23T04:17:26.728Z,9.25
2019-04-23T04:22:39.928Z,9.43
2019-04-23T04:30:19.218Z,9.55
2019-04-23T04:32:36.744Z,9.61
2019-04-23T04:42:46.174Z,9.31
2019-04-23T04:45:22.815Z,9.40
2019-04-23T04:47:42.736Z,9.39
2019-04-23T04:50:08.232Z,9.43
2019-04-23T04:52:49.025Z,9.47
2019-04-23T04:55:21.487Z,9.48
2019-04-23T04:58:00.517Z,9.55
2019-04-23T05:00:29.068Z,9.57
2019-04-23T05:07:48.159Z,9.77
2019-04-23T05:10:32.491Z,9.81
2019-04-23T05:13:15.663Z,9.81
2019-04-23T05:15:16.899Z,9.80
2019-04-23T05:18:23.649Z,9.69
2019-04-23T05:20:53.248Z,9.46
2019-04-23T05:23:28.137Z,9.39
2019-04-23T05:25:52.883Z,9.48
2019-04-23T05:28:36.199Z,9.53
2019-04-23T05:33:23.506Z,9.26
2019-04-23T05:38:46.021Z,8.93
2019-04-23T05:41:10.030Z,8.79
2019-04-23T05:43:35.799Z,8.80
2019-04-23T05:46:04.724Z,8.67
2019-04-23T05:48:33.357Z,8.44
2019-04-23T05:51:10.997Z,8.44
2019-04-23T05:53:39.767Z,8.64
2019-04-23T05:56:10.165Z,8.59
2019-04-23T06:06:44.551Z,8.70
2019-04-23T06:11:45.055Z,8.41
2019-04-23T06:14:29.108Z,8.33
2019-04-23T06:21:44.271Z,7.96
2019-04-23T06:24:16.308Z,7.96
2019-04-23T06:31:47.538Z,8.00
2019-04-23T06:34:17.144Z,7.95
2019-04-23T06:36:46.309Z,7.95
2019-04-23T06:39:24.288Z,8.04
2019-04-23T06:41:50.118Z,8.02
2019-04-23T06:44:28.461Z,8.25
2019-04-23T06:46:56.855Z,8.29
2019-04-23T06:49:32.877Z,8.28
2019-04-23T06:52:10.484Z,8.26
2019-04-23T06:54:38.796Z,8.43
2019-04-23T06:57:09.062Z,8.43
2019-04-23T06:59:33.587Z,8.45
2019-04-23T07:02:10.010Z,8.40
2019-04-23T07:09:34.925Z,8.12
2019-04-23T07:12:08.834Z,8.12
2019-04-23T07:14:44.092Z,8.12
2019-04-23T07:17:09.219Z,8.32
2019-04-23T07:19:42.400Z,8.29
2019-04-23T07:25:00.126Z,8.57
2019-04-23T07:27:13.206Z,8.55
2019-04-23T07:32:15.447Z,8.53
2019-04-23T07:34:59.208Z,8.53
2019-04-23T07:37:17.614Z,8.48
2019-04-23T07:40:21.621Z,8.19
2019-04-23T07:43:03.547Z,8.19
2019-04-23T07:45:24.016Z,8.22
2019-04-23T07:48:43.737Z,8.20
2019-04-23T07:51:00.573Z,8.33
2019-04-23T07:53:37.963Z,8.30
2019-04-23T07:58:28.629Z,8.34
2019-04-23T08:01:04.803Z,8.54
2019-04-23T08:03:40.462Z,8.76
2019-04-23T08:06:08.827Z,8.90
2019-04-23T08:08:39.867Z,9.06
2019-04-23T08:13:47.329Z,8.96
2019-04-23T08:16:23.280Z,9.09
2019-04-23T08:18:49.448Z,9.10
2019-04-23T08:21:15.764Z,9.28
2019-04-23T08:29:25.123Z,10.08
2019-04-23T08:32:16.421Z,10.77
2019-04-23T08:34:37.988Z,11.59
2019-04-23T08:39:38.553Z,13.10
2019-04-23T08:42:27.327Z,12.49
2019-04-23T08:45:10.476Z,12.20
2019-04-23T08:47:42.215Z,11.80
2019-04-23T08:50:04.333Z,11.50
2019-04-23T08:52:38.384Z,11.02
2019-04-23T08:55:13.633Z,11.15
2019-04-23T08:57:38.016Z,10.96
2019-04-23T09:00:14.164Z,11.00
2019-04-23T09:02:47.757Z,10.75
2019-04-23T09:05:26.243Z,10.82
2019-04-23T09:07:57.141Z,10.99
2019-04-23T09:12:49.155Z,11.18
2019-04-23T09:15:33.040Z,11.41
2019-04-23T09:17:56.225Z,11.77
2019-04-23T09:20:29.454Z,11.91
2019-04-23T09:22:50.358Z,12.03
2019-04-23T09:25:34.648Z,12.11
2019-04-23T09:27:59.468Z,12.22
2019-04-23T09:30:32.329Z,11.89
2019-04-23T09:33:28.758Z,12.07
2019-04-23T09:36:16.829Z,12.00
2019-04-23T09:38:55.784Z,12.03
2019-04-23T09:41:36.201Z,11.94
2019-04-23T09:44:56.279Z,12.15
2019-04-23T09:49:47.309Z,12.30
2019-04-23T09:52:23.501Z,12.01
2019-04-23T09:55:01.696Z,11.78
2019-04-23T09:57:17.140Z,11.24
2019-04-23T09:59:49.894Z,11.02
2019-04-23T10:02:14.718Z,10.73
2019-04-23T10:04:38.000Z,10.63
2019-04-23T10:07:12.627Z,10.59
2019-04-23T10:09:30.088Z,10.53
2019-04-23T10:12:01.001Z,10.30
2019-04-23T10:14:30.546Z,10.20
2019-04-23T10:17:00.148Z,10.15
2019-04-23T10:19:30.762Z,10.23
2019-04-23T10:22:01.677Z,10.46
2019-04-23T10:24:31.099Z,10.73
2019-04-23T10:27:01.940Z,11.16
2019-04-23T10:29:38.226Z,11.54
2019-04-23T10:32:09.350Z,12.69
2019-04-23T10:34:57.874Z,13.91
2019-04-23T10:37:11.303Z,13.78
2019-04-23T10:39:44.709Z,15.20
2019-04-23T10:42:14.078Z,14.24
2019-04-23T10:45:10.843Z,13.95
2019-04-23T10:48:31.723Z,14.53
2019-04-23T10:51:18.600Z,15.36
2019-04-23T10:54:02.993Z,15.98
2019-04-23T10:59:03.238Z,14.72
2019-04-23T11:01:35.816Z,14.22
2019-04-23T11:04:21.470Z,13.54
2019-04-23T11:06:45.455Z,13.47
2019-04-23T11:09:27.541Z,13.07
2019-04-23T11:12:02.178Z,12.86
2019-04-23T11:14:36.993Z,13.00
2019-04-23T11:17:04.454Z,12.94
2019-04-23T11:19:51.587Z,12.98
2019-04-23T11:22:28.104Z,13.39
2019-04-23T11:24:41.524Z,13.37
2019-04-23T11:27:20.361Z,13.28
2019-04-23T11:30:00.247Z,13.47
2019-04-23T11:32:32.539Z,13.17
2019-04-23T11:37:25.409Z,13.42
2019-04-23T11:39:44.594Z,13.73
2019-04-23T11:44:49.895Z,13.84
2019-04-23T11:48:04.443Z,13.29
2019-04-23T11:49:52.474Z,13.13
2019-04-23T11:52:30.731Z,12.71
2019-04-23T11:54:53.502Z,13.06
2019-04-23T11:59:53.085Z,12.41
2019-04-23T12:02:38.620Z,12.39
2019-04-23T12:05:26.611Z,12.35
2019-04-23T12:08:18.147Z,12.41
2019-04-23T12:11:24.027Z,12.13
2019-04-23T12:13:28.411Z,11.86
2019-04-23T12:15:53.990Z,11.74
2019-04-23T12:18:34.849Z,11.51
2019-04-23T12:21:21.572Z,11.49
2019-04-23T12:26:33.849Z,11.80
2019-04-23T12:28:57.738Z,11.93
2019-04-23T12:31:27.669Z,12.22
2019-04-23T12:33:57.343Z,12.22
2019-04-23T12:36:36.968Z,12.52
2019-04-23T12:39:04.407Z,12.73
2019-04-23T12:41:35.869Z,13.06
2019-04-23T12:44:09.703Z,13.33
2019-04-23T12:46:45.777Z,13.43
2019-04-23T12:49:28.366Z,13.18
2019-04-23T12:51:50.262Z,12.88
2019-04-23T12:54:20.602Z,12.85
2019-04-23T12:56:48.089Z,12.80
2019-04-23T12:59:17.153Z,12.71
2019-04-23T13:01:51.369Z,12.86
2019-04-23T13:04:18.660Z,12.96
2019-04-23T13:06:44.165Z,12.85
2019-04-23T13:09:35.046Z,12.92
2019-04-23T13:11:52.883Z,12.96
2019-04-23T13:14:29.484Z,13.06
2019-04-23T13:17:01.875Z,13.08
2019-04-23T13:19:37.473Z,12.76
2019-04-23T13:24:46.116Z,12.73
2019-04-23T13:27:23.982Z,12.82
2019-04-23T13:29:49.991Z,12.75
2019-04-23T13:32:23.587Z,12.77
2019-04-23T13:35:04.693Z,12.70
2019-04-23T13:37:31.705Z,12.55
2019-04-23T13:39:51.909Z,12.63
2019-04-23T13:42:33.433Z,12.67
2019-04-23T13:45:01.007Z,12.64
2019-04-23T13:50:00.304Z,12.74
2019-04-23T13:52:58.703Z,12.83
2019-04-23T13:58:04.997Z,12.87
2019-04-23T14:00:06.499Z,12.91
2019-04-23T14:02:37.184Z,12.79
2019-04-23T14:05:21.693Z,12.68
2019-04-23T14:07:55.610Z,12.46
2019-04-23T14:10:32.243Z,12.54
2019-04-23T14:13:08.811Z,12.55
2019-04-23T14:15:36.022Z,12.63
2019-04-23T14:18:22.666Z,12.39
2019-04-23T14:20:27.679Z,12.45
2019-04-23T14:23:07.847Z,12.63
2019-04-23T14:25:28.168Z,12.62
2019-04-23T14:28:13.968Z,12.67
2019-04-23T14:30:38.532Z,12.46
2019-04-23T14:33:15.870Z,12.28
2019-04-23T14:35:40.281Z,12.33
2019-04-23T14:43:14.529Z,12.09
2019-04-23T14:48:27.898Z,11.70
2019-04-23T14:50:48.771Z,11.85
2019-04-23T14:53:24.271Z,11.98
2019-04-23T14:58:31.288Z,12.14
2019-04-23T15:01:16.021Z,12.31
2019-04-23T15:03:44.947Z,12.29
2019-04-23T15:11:21.311Z,12.60
2019-04-23T15:13:49.453Z,12.88
2019-04-23T15:19:31.555Z,12.92
2019-04-23T15:28:49.076Z,12.24
2019-04-23T15:34:14.009Z,12.42
2019-04-23T15:39:24.524Z,11.96
2019-04-23T15:44:13.591Z,11.89
2019-04-23T15:46:51.279Z,11.87
2019-04-23T15:51:56.625Z,11.79
2019-04-23T15:54:29.872Z,11.86
2019-04-23T15:56:55.060Z,11.79
2019-04-23T15:59:34.647Z,11.92
2019-04-23T16:01:41.360Z,11.93
2019-04-23T16:03:59.119Z,11.92
2019-04-23T16:06:32.314Z,11.92
2019-04-23T16:09:16.247Z,11.86
2019-04-23T16:11:51.803Z,11.81
2019-04-23T16:14:32.969Z,11.75
2019-04-23T16:20:06.134Z,11.64
2019-04-23T16:22:18.952Z,11.65
2019-04-23T16:25:03.527Z,11.63
2019-04-23T16:27:14.930Z,11.63
2019-04-23T16:35:28.940Z,11.61
2019-04-23T16:38:01.627Z,11.42
2019-04-23T16:42:59.799Z,11.37
2019-04-23T16:45:27.040Z,11.41
2019-04-23T16:47:59.658Z,11.47
2019-04-23T16:50:31.019Z,11.45
2019-04-23T16:53:02.382Z,11.43
2019-04-23T16:55:34.601Z,11.39
2019-04-23T16:58:03.595Z,11.32
2019-04-23T17:00:34.795Z,11.22
2019-04-23T17:03:11.176Z,11.27
2019-04-23T17:05:39.309Z,11.26
2019-04-23T17:08:31.272Z,11.28
2019-04-23T17:10:42.821Z,11.32
2019-04-23T17:15:53.387Z,11.29
2019-04-23T17:18:22.561Z,11.30
2019-04-23T17:20:47.124Z,11.34
2019-04-23T17:23:25.554Z,11.37
2019-04-23T17:25:53.772Z,11.42
2019-04-23T17:31:05.248Z,11.52
2019-04-23T17:33:39.498Z,11.54
2019-04-23T17:39:05.559Z,11.64
2019-04-23T17:44:10.870Z,11.51
2019-04-23T17:46:37.573Z,11.34
2019-04-23T17:49:04.337Z,11.34
2019-04-23T17:51:31.261Z,11.28
2019-04-23T17:54:10.753Z,11.22
2019-04-23T17:56:55.818Z,11.17
2019-04-23T17:59:14.056Z,11.09
2019-04-23T18:01:47.546Z,11.18
2019-04-23T18:04:23.949Z,11.19
2019-04-23T18:06:50.867Z,11.28
2019-04-23T18:11:57.668Z,11.28
2019-04-23T18:14:16.490Z,11.30
2019-04-23T18:16:57.431Z,11.36
2019-04-23T18:22:35.489Z,11.29
2019-04-23T18:25:08.497Z,11.27
2019-04-23T18:27:42.536Z,11.26
2019-04-23T18:30:19.124Z,11.27
2019-04-23T18:35:29.917Z,11.20
2019-04-23T18:38:09.376Z,11.25
2019-04-23T18:40:55.214Z,11.32
2019-04-23T18:43:21.096Z,11.38
2019-04-23T18:45:45.130Z,11.40
2019-04-23T18:58:48.586Z,11.66
2019-04-23T19:06:40.858Z,11.76
2019-04-23T19:10:09.996Z,11.59
2019-04-23T19:12:36.021Z,11.53
2019-04-23T19:15:09.407Z,11.48
2019-04-23T19:20:01.124Z,11.35
2019-04-23T19:25:07.573Z,11.16
2019-04-23T19:27:40.426Z,11.22
2019-04-23T19:30:26.423Z,11.27
2019-04-23T19:32:50.767Z,11.25
2019-04-23T19:35:44.280Z,11.28
2019-04-23T19:40:28.347Z,11.34
2019-04-23T19:42:55.766Z,11.40
2019-04-23T19:45:28.350Z,11.40
2019-04-23T19:47:58.586Z,11.45
2019-04-23T19:50:33.001Z,11.47
2019-04-23T19:55:30.306Z,11.49
2019-04-23T19:58:05.063Z,11.54
2019-04-23T20:00:53.460Z,11.49
2019-04-23T20:03:28.180Z,11.51
2019-04-23T20:05:41.425Z,11.47
2019-04-23T20:10:48.192Z,11.50
2019-04-23T20:13:14.031Z,11.53
2019-04-23T20:15:51.160Z,11.53
2019-04-23T20:18:09.061Z,11.55
2019-04-23T20:23:24.802Z,11.45
2019-04-23T20:28:41.360Z,11.48
2019-04-23T20:32:03.175Z,11.46
2019-04-23T20:34:22.630Z,11.44
2019-04-23T20:36:38.496Z,11.38
2019-04-23T20:42:10.787Z,11.27
2019-04-23T20:47:05.747Z,11.17
2019-04-23T20:49:40.159Z,11.24
2019-04-23T20:54:56.524Z,11.21
2019-04-23T20:57:31.520Z,11.19
2019-04-23T21:05:10.070Z,11.10
2019-04-23T21:13:06.856Z,11.11
2019-04-23T21:17:54.647Z,11.04
2019-04-23T21:22:57.205Z,11.07
2019-04-23T21:25:18.849Z,11.08
2019-04-23T21:28:06.364Z,11.16
2019-04-23T21:31:03.435Z,11.17
2019-04-23T21:36:18.842Z,11.22
2019-04-23T21:39:15.100Z,11.24
2019-04-23T21:42:01.916Z,11.32
2019-04-23T21:52:17.564Z,11.27
2019-04-23T21:54:41.214Z,11.27
2019-04-23T21:57:02.369Z,11.28
2019-04-23T21:59:36.857Z,11.26
2019-04-23T22:02:28.761Z,11.25
2019-04-23T22:07:06.949Z,11.18
2019-04-23T22:09:43.773Z,11.15
2019-04-23T22:14:45.380Z,11.03
2019-04-23T22:17:16.874Z,11.03
2019-04-23T22:20:00.641Z,10.96
2019-04-23T22:22:16.940Z,10.87
2019-04-23T22:24:50.010Z,10.78
2019-04-23T22:27:20.184Z,10.77
2019-04-23T22:32:33.977Z,10.70
2019-04-23T22:37:25.378Z,10.58
2019-04-23T22:43:06.167Z,10.45
2019-04-23T22:47:33.555Z,10.42
2019-04-23T22:55:07.948Z,9.88
2019-04-23T22:57:56.450Z,9.84
2019-04-23T23:00:13.378Z,9.86
2019-04-23T23:05:50.653Z,10.00
2019-04-23T23:08:10.901Z,9.93
2019-04-23T23:10:48.354Z,9.97
2019-04-23T23:13:12.032Z,10.00
2019-04-23T23:15:51.042Z,10.01
2019-04-23T23:18:19.848Z,10.03
2019-04-23T23:20:46.397Z,9.97
2019-04-23T23:25:52.033Z,10.12
2019-04-23T23:28:26.165Z,10.22
2019-04-23T23:30:58.169Z,10.28
2019-04-23T23:35:54.143Z,10.38
2019-04-23T23:38:42.166Z,10.27
2019-04-23T23:41:03.628Z,10.31
2019-04-23T23:43:36.628Z,10.41
2019-04-23T23:46:06.947Z,10.45
2019-04-23T23:48:30.814Z,10.49
2019-04-23T23:51:29.085Z,10.46
2019-04-23T23:53:40.061Z,10.46
2019-04-23T23:58:56.868Z,10.45
